Time;durP1;ratioP1;P1;durP2;ratioP2;P2;SDS_P1;SDS_P2;PMS_P1;PMS_P2;Temp;Humidity;BMP_temperature;BMP_pressure;BME280_temperature;BME280_humidity;BME280_pressure;Samples;Min_cycle;Max_cycle;Signal;HPM_P1;HPM_P2
2021/12/16 00:01:49;;;;;;;28.30;11.00;;;;;;;;;;5027564;28;20056;-59
2021/12/16 00:09:45;;;;;;;27.30;11.45;;;;;;;;;;5025155;28;20160;-59
2021/12/16 00:31:48;;;;;;;30.70;12.55;;;;;;;;;;5038552;28;20394;-57
2021/12/16 00:34:14;;;;;;;30.20;12.73;;;;;;;;;;5031210;28;20049;-56
2021/12/16 00:36:41;;;;;;;29.70;12.73;;;;;;;;;;5031468;28;20866;-57
2021/12/16 00:39:09;;;;;;;28.48;10.88;;;;;;;;;;5034897;28;20474;-56
2021/12/16 00:41:37;;;;;;;28.48;11.45;;;;;;;;;;5035542;28;20470;-58
2021/12/16 00:44:23;;;;;;;28.05;11.98;;;;;;;;;;5042658;28;20021;-58
2021/12/16 00:54:41;;;;;;;23.75;10.52;;;;;;;;;;5041358;28;20129;-56
2021/12/16 00:57:13;;;;;;;29.55;11.43;;;;;;;;;;5028080;28;20456;-56
2021/12/16 00:59:40;;;;;;;27.70;11.25;;;;;;;;;;5039069;28;20029;-57
2021/12/16 01:05:29;;;;;;;30.42;11.77;;;;;;;;;;5029997;28;20522;-57
2021/12/16 01:08:09;;;;;;;23.52;10.13;;;;;;;;;;5023224;28;20030;-58
2021/12/16 01:35:45;;;;;;;29.25;11.48;;;;;;;;;;5040480;28;20114;-57
2021/12/16 01:57:07;;;;;;;17.83;8.70;;;;;;;;;;5040518;28;20034;-55
2021/12/16 01:59:36;;;;;;;19.00;8.00;;;;;;;;;;5039188;28;20057;-57
2021/12/16 02:02:49;;;;;;;20.55;8.40;;;;;;;;;;5038216;28;20381;-54
2021/12/16 02:05:35;;;;;;;17.70;7.70;;;;;;;;;;5035263;28;20497;-52
2021/12/16 02:10:37;;;;;;;17.77;8.95;;;;;;;;;;5030203;28;20053;-51
2021/12/16 02:32:38;;;;;;;17.27;7.50;;;;;;;;;;5030726;28;20434;-53
2021/12/16 02:37:36;;;;;;;18.90;8.07;;;;;;;;;;5030050;28;20036;-51
2021/12/16 02:40:04;;;;;;;14.98;6.15;;;;;;;;;;5023100;28;20029;-56
2021/12/16 02:42:41;;;;;;;18.60;6.97;;;;;;;;;;5025704;28;20021;-51
2021/12/16 02:50:39;;;;;;;15.13;6.25;;;;;;;;;;5035615;28;20476;-52
2021/12/16 02:53:05;;;;;;;17.00;6.38;;;;;;;;;;5034518;28;20814;-51
2021/12/16 02:55:31;;;;;;;14.77;6.05;;;;;;;;;;5035286;28;20100;-51
2021/12/16 02:58:00;;;;;;;12.50;6.57;;;;;;;;;;5032219;28;20037;-53
2021/12/16 03:00:31;;;;;;;14.65;5.88;;;;;;;;;;5032476;28;20389;-51
2021/12/16 03:02:57;;;;;;;14.30;6.28;;;;;;;;;;5031273;28;20022;-51
2021/12/16 03:05:23;;;;;;;14.60;6.10;;;;;;;;;;5029623;28;20034;-52
2021/12/16 03:07:50;;;;;;;13.50;5.90;;;;;;;;;;5030466;28;20029;-51
2021/12/16 03:11:02;;;;;;;13.63;5.80;;;;;;;;;;5031822;28;20069;-56
2021/12/16 03:13:21;;;;;;;13.63;5.57;;;;;;;;;;5030252;28;20041;-52
2021/12/16 03:18:30;;;;;;;10.38;5.38;;;;;;;;;;5031810;28;20046;-51
2021/12/16 03:21:03;;;;;;;16.08;6.97;;;;;;;;;;5024814;28;20043;-54
2021/12/16 03:23:50;;;;;;;11.85;5.07;;;;;;;;;;5030956;28;20131;-55
2021/12/16 03:26:52;;;;;;;17.63;6.40;;;;;;;;;;5027943;28;20444;-52
2021/12/16 03:29:34;;;;;;;12.35;5.95;;;;;;;;;;5026909;28;20030;-54
2021/12/16 03:32:13;;;;;;;14.10;6.57;;;;;;;;;;5031412;28;20044;-53
2021/12/16 03:35:00;;;;;;;15.23;6.47;;;;;;;;;;5032153;28;20111;-54
2021/12/16 03:37:26;;;;;;;15.57;6.72;;;;;;;;;;5027003;28;20048;-56
2021/12/16 03:39:54;;;;;;;21.88;7.40;;;;;;;;;;5023543;28;20034;-51
2021/12/16 03:42:24;;;;;;;13.05;5.70;;;;;;;;;;5042610;28;20052;-54
2021/12/16 03:44:57;;;;;;;18.50;7.22;;;;;;;;;;5032409;28;20025;-52
2021/12/16 03:47:49;;;;;;;14.17;6.43;;;;;;;;;;5025813;28;20375;-53
2021/12/16 03:50:20;;;;;;;14.32;5.78;;;;;;;;;;5021407;28;20064;-52
2021/12/16 03:52:48;;;;;;;16.52;6.43;;;;;;;;;;5030986;28;20026;-56
2021/12/16 03:55:14;;;;;;;13.13;5.75;;;;;;;;;;5028538;28;20643;-53
2021/12/16 03:57:40;;;;;;;14.73;5.85;;;;;;;;;;5023244;28;20466;-56
2021/12/16 04:00:11;;;;;;;13.18;6.20;;;;;;;;;;5026405;28;20064;-53
2021/12/16 04:02:38;;;;;;;14.63;5.30;;;;;;;;;;5029785;28;20040;-57
2021/12/16 04:05:05;;;;;;;14.90;5.43;;;;;;;;;;5031901;28;20021;-53
2021/12/16 04:07:32;;;;;;;12.00;4.90;;;;;;;;;;5022490;28;20025;-53
2021/12/16 04:09:58;;;;;;;17.10;6.13;;;;;;;;;;5031100;28;20045;-54
2021/12/16 04:12:26;;;;;;;12.20;5.38;;;;;;;;;;5031509;28;20107;-53
2021/12/16 04:14:53;;;;;;;12.80;6.15;;;;;;;;;;5031546;28;20026;-52
2021/12/16 04:17:21;;;;;;;10.30;4.95;;;;;;;;;;5026438;28;20038;-53
2021/12/16 04:19:48;;;;;;;11.95;5.18;;;;;;;;;;5025926;28;20052;-51
2021/12/16 04:22:17;;;;;;;12.65;4.90;;;;;;;;;;5032021;28;20040;-53
2021/12/16 04:24:44;;;;;;;15.30;6.22;;;;;;;;;;5030524;28;20580;-52
2021/12/16 04:27:10;;;;;;;9.48;4.68;;;;;;;;;;5031232;28;20032;-51
2021/12/16 04:29:36;;;;;;;14.65;5.57;;;;;;;;;;5028274;28;20059;-55
2021/12/16 04:32:02;;;;;;;16.27;6.10;;;;;;;;;;5032150;28;20049;-54
2021/12/16 04:34:28;;;;;;;10.02;4.93;;;;;;;;;;5032327;28;20099;-56
2021/12/16 04:36:54;;;;;;;14.07;4.95;;;;;;;;;;5026207;28;20414;-51
2021/12/16 04:39:22;;;;;;;12.55;5.68;;;;;;;;;;5029280;28;20499;-57
2021/12/16 04:41:50;;;;;;;13.07;5.32;;;;;;;;;;5029247;28;20129;-57
2021/12/16 04:44:16;;;;;;;14.75;5.53;;;;;;;;;;5024259;28;20026;-56
2021/12/16 04:46:43;;;;;;;14.27;6.20;;;;;;;;;;5026479;28;20100;-57
2021/12/16 04:49:10;;;;;;;14.40;5.50;;;;;;;;;;5024232;28;20033;-56
2021/12/16 04:51:38;;;;;;;12.38;5.40;;;;;;;;;;5028520;28;20108;-53
2021/12/16 04:54:05;;;;;;;12.27;4.97;;;;;;;;;;5030422;28;20362;-57
2021/12/16 04:56:32;;;;;;;15.68;5.55;;;;;;;;;;5019088;28;20167;-52
2021/12/16 04:58:58;;;;;;;12.52;5.00;;;;;;;;;;5021242;28;20030;-53
2021/12/16 05:01:24;;;;;;;14.63;5.30;;;;;;;;;;5030948;28;20029;-51
2021/12/16 05:03:51;;;;;;;13.35;5.75;;;;;;;;;;5031835;28;20030;-53
2021/12/16 05:06:18;;;;;;;12.15;5.65;;;;;;;;;;5032648;28;20057;-52
2021/12/16 05:08:44;;;;;;;13.68;5.85;;;;;;;;;;5024616;28;20033;-51
2021/12/16 05:11:13;;;;;;;11.57;5.20;;;;;;;;;;5026276;28;20033;-52
2021/12/16 05:13:40;;;;;;;13.10;5.50;;;;;;;;;;5021691;28;20045;-54
2021/12/16 05:16:06;;;;;;;15.02;6.13;;;;;;;;;;5032451;28;20443;-53
2021/12/16 05:18:34;;;;;;;12.80;5.63;;;;;;;;;;5029606;28;20095;-53
2021/12/16 05:21:08;;;;;;;12.68;6.00;;;;;;;;;;5030661;28;20040;-50
2021/12/16 05:26:21;;;;;;;10.88;5.93;;;;;;;;;;5030826;28;20120;-51
2021/12/16 05:28:49;;;;;;;14.40;6.47;;;;;;;;;;5028253;28;20045;-50
2021/12/16 05:31:15;;;;;;;15.73;7.07;;;;;;;;;;5030204;28;20039;-50
2021/12/16 05:33:41;;;;;;;11.65;5.63;;;;;;;;;;5031225;28;20048;-50
2021/12/16 05:36:07;;;;;;;14.68;6.13;;;;;;;;;;5031353;28;20029;-51
2021/12/16 05:38:33;;;;;;;12.93;5.35;;;;;;;;;;5027916;28;20030;-51
2021/12/16 05:40:59;;;;;;;11.50;5.70;;;;;;;;;;5029541;28;20033;-51
2021/12/16 05:43:26;;;;;;;16.33;5.95;;;;;;;;;;5037199;28;20022;-52
2021/12/16 05:45:53;;;;;;;16.52;7.20;;;;;;;;;;5026429;28;20021;-51
2021/12/16 05:48:21;;;;;;;13.85;6.25;;;;;;;;;;5029545;28;20048;-53
2021/12/16 05:50:49;;;;;;;13.38;6.22;;;;;;;;;;5031611;28;20025;-52
2021/12/16 05:53:15;;;;;;;16.42;6.30;;;;;;;;;;5026494;28;20033;-51
2021/12/16 05:55:41;;;;;;;15.02;6.55;;;;;;;;;;5032068;28;20036;-53
2021/12/16 05:58:08;;;;;;;15.32;6.20;;;;;;;;;;5026186;28;20040;-54
2021/12/16 06:00:36;;;;;;;15.02;7.30;;;;;;;;;;5027113;28;20025;-54
2021/12/16 06:03:02;;;;;;;18.15;7.43;;;;;;;;;;5029826;28;20045;-56
2021/12/16 06:05:29;;;;;;;16.20;6.45;;;;;;;;;;5030102;28;20111;-55
2021/12/16 06:07:55;;;;;;;14.82;7.53;;;;;;;;;;5030018;28;20025;-56
2021/12/16 06:13:07;;;;;;;18.02;7.15;;;;;;;;;;5026707;28;20037;-54
2021/12/16 06:28:56;;;;;;;16.20;6.40;;;;;;;;;;5033840;28;20048;-55
2021/12/16 06:31:22;;;;;;;17.27;6.90;;;;;;;;;;5025432;28;20474;-52
2021/12/16 06:33:48;;;;;;;13.73;6.72;;;;;;;;;;5031536;28;20057;-56
2021/12/16 06:36:14;;;;;;;18.02;7.18;;;;;;;;;;5035073;28;20116;-55
2021/12/16 06:38:40;;;;;;;18.20;7.25;;;;;;;;;;5034447;28;20043;-52
2021/12/16 06:41:07;;;;;;;16.85;7.47;;;;;;;;;;5028758;28;20064;-53
2021/12/16 06:43:34;;;;;;;13.85;6.40;;;;;;;;;;5033580;28;20052;-56
2021/12/16 06:46:03;;;;;;;16.73;7.38;;;;;;;;;;5030396;28;20029;-56
2021/12/16 06:48:33;;;;;;;14.20;6.72;;;;;;;;;;5031373;28;20132;-55
2021/12/16 06:51:14;;;;;;;16.10;6.85;;;;;;;;;;5025035;28;20134;-54
2021/12/16 06:53:52;;;;;;;16.15;6.35;;;;;;;;;;5034448;28;20083;-55
2021/12/16 06:56:26;;;;;;;18.30;7.20;;;;;;;;;;5030582;28;20088;-56
2021/12/16 06:59:05;;;;;;;15.68;7.43;;;;;;;;;;5032756;28;20052;-55
2021/12/16 07:01:37;;;;;;;17.38;7.22;;;;;;;;;;5033866;28;20037;-54
2021/12/16 07:04:05;;;;;;;15.32;6.95;;;;;;;;;;5034217;28;20474;-54
2021/12/16 07:06:31;;;;;;;18.52;7.10;;;;;;;;;;5034559;28;20096;-54
2021/12/16 07:08:59;;;;;;;18.02;7.68;;;;;;;;;;5034011;28;20779;-53
2021/12/16 07:11:25;;;;;;;15.57;6.80;;;;;;;;;;5025564;28;20033;-53
2021/12/16 07:14:00;;;;;;;17.20;8.00;;;;;;;;;;5034261;28;20025;-53
2021/12/16 07:16:28;;;;;;;13.75;6.68;;;;;;;;;;5032122;28;20034;-54
2021/12/16 07:18:55;;;;;;;15.20;6.93;;;;;;;;;;5034075;28;20021;-54
2021/12/16 07:21:23;;;;;;;15.05;6.85;;;;;;;;;;5033897;28;20030;-56
2021/12/16 07:23:49;;;;;;;16.77;6.82;;;;;;;;;;5030430;28;20080;-51
2021/12/16 07:26:15;;;;;;;18.58;7.00;;;;;;;;;;5025242;28;20060;-52
2021/12/16 07:28:41;;;;;;;17.35;6.63;;;;;;;;;;5033646;28;20021;-56
2021/12/16 07:31:07;;;;;;;23.02;7.07;;;;;;;;;;5033991;28;20035;-56
2021/12/16 07:33:33;;;;;;;15.00;6.97;;;;;;;;;;5030106;28;20054;-52
2021/12/16 07:36:00;;;;;;;15.45;6.75;;;;;;;;;;5033698;28;20105;-52
2021/12/16 07:38:27;;;;;;;20.20;6.78;;;;;;;;;;5032406;28;20033;-51
2021/12/16 07:40:53;;;;;;;18.08;6.78;;;;;;;;;;5032951;28;20043;-54
2021/12/16 07:43:40;;;;;;;18.38;6.80;;;;;;;;;;5033297;28;20103;-51
2021/12/16 07:46:07;;;;;;;15.23;6.20;;;;;;;;;;5028680;28;20079;-52
2021/12/16 07:48:33;;;;;;;16.27;6.45;;;;;;;;;;5033489;28;20021;-53
2021/12/16 07:51:00;;;;;;;17.38;6.93;;;;;;;;;;5033760;28;20185;-51
2021/12/16 07:53:27;;;;;;;13.95;6.68;;;;;;;;;;5027531;28;20034;-56
2021/12/16 07:55:53;;;;;;;15.23;6.85;;;;;;;;;;5033649;28;20026;-52
2021/12/16 07:58:19;;;;;;;15.63;6.93;;;;;;;;;;5033168;28;20029;-50
2021/12/16 08:00:45;;;;;;;16.83;6.30;;;;;;;;;;5033519;28;20032;-52
2021/12/16 08:03:12;;;;;;;12.23;6.45;;;;;;;;;;5033398;28;20104;-53
2021/12/16 08:05:40;;;;;;;17.95;6.75;;;;;;;;;;5029570;28;20508;-51
2021/12/16 08:08:08;;;;;;;14.15;5.82;;;;;;;;;;5029043;28;20074;-51
2021/12/16 08:10:34;;;;;;;14.90;5.85;;;;;;;;;;5028121;28;20061;-52
2021/12/16 08:13:00;;;;;;;12.50;6.00;;;;;;;;;;5023527;28;20022;-53
2021/12/16 08:15:26;;;;;;;16.25;6.18;;;;;;;;;;5033447;28;20108;-55
2021/12/16 08:17:54;;;;;;;12.82;5.97;;;;;;;;;;5032693;28;20029;-57
2021/12/16 08:20:21;;;;;;;14.27;6.22;;;;;;;;;;5032969;28;20064;-55
2021/12/16 08:22:47;;;;;;;13.40;6.00;;;;;;;;;;5032131;28;20017;-56
2021/12/16 08:25:14;;;;;;;18.10;5.90;;;;;;;;;;5025699;28;20370;-55
2021/12/16 08:27:40;;;;;;;14.02;6.25;;;;;;;;;;5031028;28;20133;-52
2021/12/16 08:30:08;;;;;;;13.35;5.88;;;;;;;;;;5032591;28;20072;-53
2021/12/16 08:32:34;;;;;;;16.55;5.90;;;;;;;;;;5032661;28;20120;-55
2021/12/16 08:35:00;;;;;;;14.80;6.03;;;;;;;;;;5031989;28;20088;-53
2021/12/16 08:37:26;;;;;;;12.15;6.30;;;;;;;;;;5030696;28;20061;-55
2021/12/16 08:39:53;;;;;;;13.15;5.30;;;;;;;;;;5032354;28;20021;-54
2021/12/16 08:42:20;;;;;;;13.57;6.50;;;;;;;;;;5032684;28;20053;-53
2021/12/16 08:44:46;;;;;;;14.82;5.90;;;;;;;;;;5032882;28;20412;-52
2021/12/16 08:47:14;;;;;;;14.38;6.00;;;;;;;;;;5031812;28;20029;-53
2021/12/16 08:49:40;;;;;;;16.38;5.75;;;;;;;;;;5032454;28;20025;-52
2021/12/16 08:52:12;;;;;;;14.35;5.75;;;;;;;;;;5032329;28;20104;-53
2021/12/16 08:54:38;;;;;;;12.20;5.47;;;;;;;;;;5026213;28;20032;-51
2021/12/16 08:57:05;;;;;;;14.90;5.32;;;;;;;;;;5032629;28;20021;-51
2021/12/16 08:59:31;;;;;;;15.45;6.60;;;;;;;;;;5032172;28;20018;-50
2021/12/16 09:01:58;;;;;;;17.00;6.07;;;;;;;;;;5032597;28;20026;-52
2021/12/16 09:04:24;;;;;;;9.55;4.55;;;;;;;;;;5031220;28;20108;-52
2021/12/16 09:06:51;;;;;;;15.52;5.53;;;;;;;;;;5025467;28;20029;-54
2021/12/16 09:09:17;;;;;;;11.98;5.60;;;;;;;;;;5031470;28;20028;-53
2021/12/16 09:12:01;;;;;;;13.48;6.03;;;;;;;;;;5029876;28;20478;-54
2021/12/16 09:14:27;;;;;;;13.07;6.00;;;;;;;;;;5019277;28;20049;-52
2021/12/16 09:16:53;;;;;;;16.58;6.05;;;;;;;;;;5032277;28;20029;-53
2021/12/16 09:19:19;;;;;;;11.25;5.22;;;;;;;;;;5031702;28;20026;-51
2021/12/16 09:21:45;;;;;;;12.13;4.88;;;;;;;;;;5032258;28;20507;-53
2021/12/16 09:24:14;;;;;;;11.35;5.80;;;;;;;;;;5032074;28;20021;-54
2021/12/16 09:26:40;;;;;;;12.05;5.38;;;;;;;;;;5032095;28;20087;-56
2021/12/16 09:29:06;;;;;;;15.45;6.65;;;;;;;;;;5031562;28;20021;-55
2021/12/16 09:31:32;;;;;;;9.95;5.65;;;;;;;;;;5030455;28;20478;-52
2021/12/16 09:34:05;;;;;;;11.00;5.10;;;;;;;;;;5031802;28;20139;-57
2021/12/16 09:36:31;;;;;;;12.60;5.68;;;;;;;;;;5032314;28;20037;-50
2021/12/16 09:38:57;;;;;;;12.85;5.65;;;;;;;;;;5031452;28;20064;-52
2021/12/16 09:41:23;;;;;;;14.90;6.28;;;;;;;;;;5026452;28;20717;-53
2021/12/16 09:43:50;;;;;;;11.80;5.45;;;;;;;;;;5032090;28;20053;-54
2021/12/16 09:46:18;;;;;;;12.70;6.13;;;;;;;;;;5031654;28;20052;-52
2021/12/16 09:48:44;;;;;;;11.32;5.07;;;;;;;;;;5031751;28;20529;-57
2021/12/16 09:51:16;;;;;;;12.07;5.53;;;;;;;;;;5031738;28;20025;-53
2021/12/16 09:53:42;;;;;;;11.27;5.20;;;;;;;;;;5025562;28;20485;-55
2021/12/16 09:56:09;;;;;;;11.00;5.93;;;;;;;;;;5031444;28;20045;-54
2021/12/16 09:58:38;;;;;;;10.70;5.00;;;;;;;;;;5034404;28;20139;-54
2021/12/16 10:01:05;;;;;;;10.50;4.95;;;;;;;;;;5035776;28;20048;-53
2021/12/16 10:03:31;;;;;;;13.50;5.30;;;;;;;;;;5030006;28;20040;-50
2021/12/16 10:05:57;;;;;;;15.65;5.40;;;;;;;;;;5035803;28;20026;-50
2021/12/16 10:08:23;;;;;;;9.95;4.85;;;;;;;;;;5035058;28;20373;-55
2021/12/16 10:10:49;;;;;;;13.48;5.38;;;;;;;;;;5028083;28;20030;-50
2021/12/16 10:13:22;;;;;;;10.43;4.72;;;;;;;;;;5034685;28;20037;-53
2021/12/16 10:18:30;;;;;;;9.82;4.00;;;;;;;;;;5035324;28;20519;-52
2021/12/16 10:20:58;;;;;;;13.20;5.47;;;;;;;;;;5035345;28;20116;-52
2021/12/16 10:23:33;;;;;;;11.57;4.82;;;;;;;;;;5030225;28;20026;-51
2021/12/16 10:26:02;;;;;;;8.60;4.53;;;;;;;;;;5026589;28;20419;-52
2021/12/16 10:28:30;;;;;;;9.25;4.55;;;;;;;;;;5034974;28;20104;-54
2021/12/16 10:31:06;;;;;;;9.88;4.75;;;;;;;;;;5035230;28;20535;-56
2021/12/16 10:33:38;;;;;;;9.48;4.93;;;;;;;;;;5031381;28;20099;-51
2021/12/16 10:36:12;;;;;;;10.00;5.13;;;;;;;;;;5035161;28;20103;-51
2021/12/16 10:38:43;;;;;;;9.82;4.57;;;;;;;;;;5026634;28;20037;-53
2021/12/16 10:41:10;;;;;;;9.90;4.90;;;;;;;;;;5032671;28;20048;-51
2021/12/16 10:43:41;;;;;;;8.80;4.03;;;;;;;;;;5035178;28;20052;-55
2021/12/16 10:46:13;;;;;;;7.68;4.00;;;;;;;;;;5035453;28;20385;-51
2021/12/16 10:48:42;;;;;;;8.07;4.43;;;;;;;;;;5034682;28;20022;-53
2021/12/16 10:51:23;;;;;;;6.60;3.70;;;;;;;;;;5034227;28;20026;-51
2021/12/16 10:53:54;;;;;;;7.50;3.80;;;;;;;;;;5031443;28;20478;-51
2021/12/16 10:56:24;;;;;;;7.35;3.67;;;;;;;;;;5034621;28;20107;-53
2021/12/16 10:58:52;;;;;;;9.52;3.75;;;;;;;;;;5033224;28;20109;-53
2021/12/16 11:01:37;;;;;;;9.02;3.88;;;;;;;;;;5034607;28;20444;-54
2021/12/16 11:04:08;;;;;;;7.75;3.58;;;;;;;;;;5028454;28;20413;-53
2021/12/16 11:06:39;;;;;;;8.98;3.50;;;;;;;;;;5034234;28;20029;-50
2021/12/16 11:09:24;;;;;;;5.57;3.40;;;;;;;;;;5034453;28;20104;-50
2021/12/16 11:12:04;;;;;;;7.47;3.30;;;;;;;;;;5023776;28;20103;-52
2021/12/16 11:14:30;;;;;;;6.20;3.10;;;;;;;;;;5035244;28;20021;-53
2021/12/16 11:17:02;;;;;;;5.93;3.10;;;;;;;;;;5035547;28;20028;-52
2021/12/16 11:19:38;;;;;;;6.88;2.83;;;;;;;;;;5037058;28;20462;-52
2021/12/16 11:22:05;;;;;;;6.35;2.85;;;;;;;;;;5036478;28;20035;-52
2021/12/16 11:24:31;;;;;;;6.63;3.00;;;;;;;;;;5037432;28;20052;-51
2021/12/16 11:26:57;;;;;;;5.72;2.38;;;;;;;;;;5032815;28;20029;-55
2021/12/16 11:29:30;;;;;;;7.40;2.97;;;;;;;;;;5040802;28;20025;-51
2021/12/16 11:31:57;;;;;;;4.63;2.17;;;;;;;;;;5039556;28;20033;-52
2021/12/16 11:34:23;;;;;;;4.53;2.50;;;;;;;;;;5041646;28;20061;-52
2021/12/16 11:36:54;;;;;;;4.75;2.10;;;;;;;;;;5035626;28;20467;-52
2021/12/16 11:39:22;;;;;;;3.70;1.73;;;;;;;;;;5042231;28;20075;-53
2021/12/16 11:41:51;;;;;;;3.70;2.30;;;;;;;;;;5040202;28;20397;-55
2021/12/16 11:44:20;;;;;;;3.97;1.80;;;;;;;;;;5041830;28;20389;-52
2021/12/16 11:46:46;;;;;;;6.45;1.80;;;;;;;;;;5044264;28;20047;-52
2021/12/16 11:49:24;;;;;;;3.78;2.00;;;;;;;;;;5044336;28;20450;-51
2021/12/16 11:51:54;;;;;;;4.43;1.77;;;;;;;;;;5041842;28;20373;-52
2021/12/16 11:54:22;;;;;;;3.33;1.90;;;;;;;;;;5033315;28;20021;-51
2021/12/16 11:56:52;;;;;;;6.63;1.80;;;;;;;;;;5033401;28;20091;-56
2021/12/16 11:59:22;;;;;;;2.90;1.75;;;;;;;;;;5032940;28;20045;-55
2021/12/16 12:01:49;;;;;;;7.07;1.92;;;;;;;;;;5033814;28;20124;-56
2021/12/16 12:04:15;;;;;;;4.05;1.90;;;;;;;;;;5033536;28;20025;-56
2021/12/16 12:06:44;;;;;;;4.82;1.95;;;;;;;;;;5033621;28;20108;-55
2021/12/16 12:09:10;;;;;;;2.53;1.52;;;;;;;;;;5043372;28;20043;-57
2021/12/16 12:11:42;;;;;;;5.47;1.85;;;;;;;;;;5032952;28;20108;-55
2021/12/16 12:14:11;;;;;;;5.55;1.88;;;;;;;;;;5034091;28;20382;-57
2021/12/16 12:16:39;;;;;;;2.47;1.83;;;;;;;;;;5034456;28;20026;-55
2021/12/16 12:19:19;;;;;;;4.25;1.85;;;;;;;;;;5035496;28;20531;-55
2021/12/16 12:22:00;;;;;;;3.13;1.88;;;;;;;;;;5035229;28;20128;-55
2021/12/16 12:24:31;;;;;;;4.95;1.70;;;;;;;;;;5027333;28;20032;-55
2021/12/16 12:27:03;;;;;;;2.63;1.42;;;;;;;;;;5036163;28;20026;-56
2021/12/16 12:29:32;;;;;;;3.78;1.50;;;;;;;;;;5032823;28;20022;-55
2021/12/16 12:32:04;;;;;;;2.83;1.65;;;;;;;;;;5039991;28;20060;-55
2021/12/16 12:34:30;;;;;;;3.58;1.73;;;;;;;;;;5036940;28;20049;-55
2021/12/16 12:36:58;;;;;;;2.88;1.65;;;;;;;;;;5042409;28;20052;-55
2021/12/16 12:39:27;;;;;;;4.20;1.70;;;;;;;;;;5037332;28;20026;-57
2021/12/16 12:41:53;;;;;;;3.17;1.38;;;;;;;;;;5029304;28;20448;-52
2021/12/16 12:44:19;;;;;;;3.72;1.38;;;;;;;;;;5033034;28;20474;-52
2021/12/16 12:46:46;;;;;;;2.65;1.45;;;;;;;;;;5040647;28;20021;-57
2021/12/16 12:49:14;;;;;;;2.97;1.23;;;;;;;;;;5039770;28;20033;-53
2021/12/16 12:51:42;;;;;;;3.03;1.20;;;;;;;;;;5045775;28;20036;-54
2021/12/16 12:54:37;;;;;;;4.10;1.20;;;;;;;;;;5036607;28;20027;-54
2021/12/16 12:57:18;;;;;;;4.40;1.25;;;;;;;;;;5034668;28;20048;-56
2021/12/16 12:59:44;;;;;;;5.53;1.17;;;;;;;;;;5034652;28;20029;-54
2021/12/16 13:02:15;;;;;;;4.65;1.35;;;;;;;;;;5034633;28;20516;-57
2021/12/16 13:05:05;;;;;;;2.22;1.00;;;;;;;;;;5035193;28;20040;-53
2021/12/16 13:07:33;;;;;;;3.97;1.83;;;;;;;;;;5031944;28;20108;-57
2021/12/16 13:10:01;;;;;;;2.67;1.10;;;;;;;;;;5029023;28;20030;-57
2021/12/16 13:12:31;;;;;;;5.80;1.20;;;;;;;;;;5028784;28;20045;-55
2021/12/16 13:15:07;;;;;;;4.35;1.25;;;;;;;;;;5029683;28;20111;-55
2021/12/16 13:26:14;;;;;;;2.10;1.20;;;;;;;;;;5026958;28;20048;-51
2021/12/16 13:28:43;;;;;;;3.10;1.00;;;;;;;;;;5031502;28;20030;-51
2021/12/16 13:31:30;;;;;;;3.78;1.10;;;;;;;;;;5031729;28;20038;-53
2021/12/16 13:33:59;;;;;;;2.58;1.02;;;;;;;;;;5027432;28;20045;-52
2021/12/16 13:36:39;;;;;;;3.05;1.55;;;;;;;;;;5031585;28;20045;-53
2021/12/16 13:39:09;;;;;;;6.32;1.80;;;;;;;;;;5031437;28;20417;-55
2021/12/16 13:41:36;;;;;;;3.20;1.52;;;;;;;;;;5031646;28;20030;-52
2021/12/16 13:44:05;;;;;;;3.80;1.08;;;;;;;;;;5031954;28;20029;-52
2021/12/16 13:46:51;;;;;;;3.47;1.38;;;;;;;;;;5032006;28;20065;-51
2021/12/16 14:04:03;;;;;;;3.45;1.30;;;;;;;;;;5026277;28;20028;-57
2021/12/16 14:06:34;;;;;;;4.03;1.20;;;;;;;;;;5031823;28;20049;-51
2021/12/16 14:09:11;;;;;;;5.35;1.90;;;;;;;;;;5029314;28;20056;-53
2021/12/16 14:14:41;;;;;;;4.55;1.30;;;;;;;;;;5031578;28;20095;-53
2021/12/16 14:25:25;;;;;;;4.88;1.40;;;;;;;;;;5019882;28;20037;-54
2021/12/16 14:34:25;;;;;;;5.30;1.65;;;;;;;;;;5029463;28;20048;-55
2021/12/16 14:36:55;;;;;;;3.33;1.77;;;;;;;;;;5024118;28;20049;-53
2021/12/16 14:47:11;;;;;;;2.38;1.30;;;;;;;;;;5033571;28;20033;-57
2021/12/16 14:49:42;;;;;;;2.33;0.95;;;;;;;;;;5033858;28;20528;-52
2021/12/16 14:52:19;;;;;;;4.55;1.25;;;;;;;;;;5034167;28;20032;-56
2021/12/16 14:55:00;;;;;;;4.97;1.55;;;;;;;;;;5033441;28;20026;-54
2021/12/16 14:57:39;;;;;;;6.50;1.63;;;;;;;;;;5026287;28;20033;-52
2021/12/16 15:00:12;;;;;;;6.07;1.92;;;;;;;;;;5029148;28;20026;-53
2021/12/16 15:02:39;;;;;;;4.50;1.88;;;;;;;;;;5031470;28;20014;-52
2021/12/16 15:05:20;;;;;;;2.92;1.85;;;;;;;;;;5031018;28;20057;-53
2021/12/16 15:07:46;;;;;;;1.83;1.20;;;;;;;;;;5034035;28;20144;-56
2021/12/16 15:10:14;;;;;;;2.83;1.30;;;;;;;;;;5034256;28;20025;-57
2021/12/16 15:12:55;;;;;;;3.45;1.40;;;;;;;;;;5032501;28;20033;-52
2021/12/16 15:15:33;;;;;;;6.38;1.55;;;;;;;;;;5034563;28;20029;-56
2021/12/16 15:40:13;;;;;;;3.38;1.63;;;;;;;;;;5030329;28;20087;-54
2021/12/16 15:42:52;;;;;;;1.73;1.00;;;;;;;;;;5034010;28;20111;-56
2021/12/16 15:45:23;;;;;;;3.22;1.48;;;;;;;;;;5034059;28;20068;-56
2021/12/16 15:47:51;;;;;;;5.78;1.60;;;;;;;;;;5031932;28;20026;-56
2021/12/16 15:50:20;;;;;;;3.22;1.90;;;;;;;;;;5031874;28;20035;-56
2021/12/16 15:52:48;;;;;;;6.93;2.05;;;;;;;;;;5033835;28;20029;-57
2021/12/16 15:55:22;;;;;;;5.72;2.95;;;;;;;;;;5026616;28;20456;-53
2021/12/16 15:57:48;;;;;;;4.72;1.85;;;;;;;;;;5033435;28;20083;-57
2021/12/16 16:00:16;;;;;;;4.38;2.58;;;;;;;;;;5033442;28;20040;-55
2021/12/16 16:02:42;;;;;;;7.30;2.22;;;;;;;;;;5033889;28;20021;-54
2021/12/16 16:05:09;;;;;;;3.40;1.67;;;;;;;;;;5033437;28;20052;-55
2021/12/16 16:07:36;;;;;;;6.80;2.40;;;;;;;;;;5033142;28;20063;-57
2021/12/16 16:10:03;;;;;;;2.72;1.83;;;;;;;;;;5032675;28;20025;-56
2021/12/16 16:12:31;;;;;;;3.35;1.90;;;;;;;;;;5033543;28;20104;-57
2021/12/16 16:15:10;;;;;;;5.95;2.03;;;;;;;;;;5033169;28;20036;-54
2021/12/16 16:17:53;;;;;;;3.17;2.17;;;;;;;;;;5030853;28;20075;-54
2021/12/16 16:20:19;;;;;;;;;;;;;;;;;;5031571;28;20034;-51
2021/12/16 16:22:48;;;;;;;2.70;1.60;;;;;;;;;;5027361;28;19967;-53
2021/12/16 16:25:15;;;;;;;6.07;1.85;;;;;;;;;;5027225;28;20037;-54
2021/12/16 16:27:41;;;;;;;4.35;1.98;;;;;;;;;;5027934;28;20112;-57
2021/12/16 16:30:08;;;;;;;7.85;2.42;;;;;;;;;;5030599;28;20084;-55
2021/12/16 16:32:52;;;;;;;4.55;1.92;;;;;;;;;;5024680;28;20029;-56
2021/12/16 16:35:19;;;;;;;5.85;2.05;;;;;;;;;;5027843;28;20049;-51
2021/12/16 16:37:45;;;;;;;5.32;1.98;;;;;;;;;;5030531;28;20591;-54
2021/12/16 16:40:11;;;;;;;5.20;2.00;;;;;;;;;;5029169;28;20126;-54
2021/12/16 16:42:41;;;;;;;3.80;2.30;;;;;;;;;;5031379;28;20029;-55
2021/12/16 16:45:10;;;;;;;4.65;2.50;;;;;;;;;;5031551;28;20036;-59
2021/12/16 16:47:46;;;;;;;6.15;2.45;;;;;;;;;;5025456;28;20399;-54
2021/12/16 16:50:13;;;;;;;5.25;2.40;;;;;;;;;;5029923;28;20022;-55
2021/12/16 16:52:44;;;;;;;6.65;2.45;;;;;;;;;;5030485;28;20025;-54
2021/12/16 16:55:12;;;;;;;7.85;2.08;;;;;;;;;;5030525;28;20037;-54
2021/12/16 16:58:04;;;;;;;6.00;2.15;;;;;;;;;;5026970;28;20327;-55
2021/12/16 17:00:41;;;;;;;5.63;2.47;;;;;;;;;;5029297;28;20039;-57
2021/12/16 17:03:09;;;;;;;7.18;2.92;;;;;;;;;;5027382;28;20030;-56
2021/12/16 17:05:44;;;;;;;3.85;2.33;;;;;;;;;;5030154;28;20096;-52
2021/12/16 17:08:12;;;;;;;5.30;2.33;;;;;;;;;;5026721;28;20497;-56
2021/12/16 17:11:00;;;;;;;6.03;2.60;;;;;;;;;;5031529;28;20497;-54
2021/12/16 17:13:38;;;;;;;3.60;2.30;;;;;;;;;;5030072;28;20482;-57
2021/12/16 17:18:41;;;;;;;3.47;2.28;;;;;;;;;;5027698;28;20064;-57
2021/12/16 17:21:23;;;;;;;5.93;2.47;;;;;;;;;;5025112;28;20079;-54
2021/12/16 17:23:51;;;;;;;8.90;2.45;;;;;;;;;;5028362;28;20097;-55
2021/12/16 17:26:44;;;;;;;4.95;2.60;;;;;;;;;;5029461;28;20610;-54
2021/12/16 17:29:11;;;;;;;6.68;2.60;;;;;;;;;;5024862;28;20563;-57
2021/12/16 17:31:37;;;;;;;7.00;2.50;;;;;;;;;;5026398;28;20029;-57
2021/12/16 17:34:07;;;;;;;4.32;2.33;;;;;;;;;;5028002;28;20042;-57
2021/12/16 17:36:34;;;;;;;6.97;2.58;;;;;;;;;;5024876;28;20034;-56
2021/12/16 17:39:10;;;;;;;6.28;2.45;;;;;;;;;;5023613;28;20359;-53
2021/12/16 17:41:36;;;;;;;9.30;3.35;;;;;;;;;;5024292;28;20389;-57
2021/12/16 17:44:08;;;;;;;7.05;2.80;;;;;;;;;;5029386;28;20018;-52
2021/12/16 17:46:34;;;;;;;5.38;2.97;;;;;;;;;;5025573;28;20496;-56
2021/12/16 17:49:00;;;;;;;10.40;2.97;;;;;;;;;;5023583;28;20030;-53
2021/12/16 17:51:29;;;;;;;7.45;2.90;;;;;;;;;;5025934;28;20099;-54
2021/12/16 17:53:57;;;;;;;7.50;2.67;;;;;;;;;;5023199;28;20362;-56
2021/12/16 17:56:25;;;;;;;8.73;2.83;;;;;;;;;;5029988;28;20112;-56
2021/12/16 17:58:53;;;;;;;4.13;2.38;;;;;;;;;;5023892;28;20087;-51
2021/12/16 18:01:22;;;;;;;7.53;2.83;;;;;;;;;;5023839;28;20048;-54
2021/12/16 18:03:51;;;;;;;5.75;2.28;;;;;;;;;;5025900;28;20037;-55
2021/12/16 18:06:19;;;;;;;8.00;2.72;;;;;;;;;;5026784;28;20038;-55
2021/12/16 18:08:48;;;;;;;9.40;3.78;;;;;;;;;;5024791;28;20478;-53
2021/12/16 18:11:17;;;;;;;6.60;2.85;;;;;;;;;;5030344;28;20029;-53
2021/12/16 18:13:49;;;;;;;5.47;3.15;;;;;;;;;;5030836;28;20021;-54
2021/12/16 18:16:20;;;;;;;6.18;2.95;;;;;;;;;;5024448;28;20124;-55
2021/12/16 18:18:47;;;;;;;9.13;2.88;;;;;;;;;;5030496;28;20025;-53
2021/12/16 18:21:13;;;;;;;8.45;3.00;;;;;;;;;;5032354;28;20025;-53